createdAt,value
2019-05-10T00:00:51.893Z,84.02
2019-05-10T00:03:39.789Z,85.37
2019-05-10T00:06:27.855Z,85.43
2019-05-10T00:08:57.169Z,84.54
2019-05-10T00:11:34.800Z,83.92
2019-05-10T00:14:15.304Z,82.79
2019-05-10T00:16:46.119Z,85.20
2019-05-10T00:19:16.172Z,85.32
2019-05-10T00:21:46.203Z,85.52
2019-05-10T00:24:16.171Z,84.80
2019-05-10T00:26:46.223Z,85.71
2019-05-10T00:29:16.291Z,84.22
2019-05-10T00:31:46.354Z,84.11
2019-05-10T00:34:16.520Z,84.51
2019-05-10T00:36:46.487Z,85.54
2019-05-10T00:39:19.384Z,85.85
2019-05-10T00:41:48.188Z,85.09
2019-05-10T00:44:18.159Z,85.28
2019-05-10T00:46:48.206Z,85.93
2019-05-10T00:49:18.246Z,85.15
2019-05-10T00:51:48.225Z,84.68
2019-05-10T00:54:18.345Z,84.34
2019-05-10T00:56:48.341Z,84.16
2019-05-10T00:59:18.388Z,84.82
2019-05-10T01:01:48.398Z,85.01
2019-05-10T01:04:18.389Z,85.31
2019-05-10T01:06:48.606Z,84.23
2019-05-10T01:09:18.693Z,85.45
2019-05-10T01:11:48.674Z,85.15
2019-05-10T01:14:18.707Z,83.85
2019-05-10T01:16:48.718Z,82.22
2019-05-10T01:19:18.721Z,83.73
2019-05-10T01:21:48.700Z,85.35
2019-05-10T01:24:19.244Z,85.52
2019-05-10T01:26:49.276Z,85.76
2019-05-10T01:29:19.274Z,85.77
2019-05-10T01:31:49.282Z,84.59
2019-05-10T01:34:19.267Z,84.79
2019-05-10T01:36:49.269Z,85.76
2019-05-10T01:39:20.412Z,84.94
2019-05-10T01:41:52.273Z,85.14
2019-05-10T01:44:22.375Z,85.50
2019-05-10T01:46:52.372Z,85.93
2019-05-10T01:49:22.391Z,85.35
2019-05-10T01:51:52.365Z,85.72
2019-05-10T01:54:22.380Z,86.00
2019-05-10T01:56:52.355Z,84.95
2019-05-10T01:59:22.445Z,84.77
2019-05-10T02:01:52.424Z,85.27
2019-05-10T02:04:22.435Z,84.32
2019-05-10T02:06:52.431Z,83.86
2019-05-10T02:09:22.698Z,85.15
2019-05-10T02:11:53.485Z,86.12
2019-05-10T02:14:23.474Z,85.47
2019-05-10T02:16:53.542Z,85.48
2019-05-10T02:19:23.521Z,86.52
2019-05-10T02:21:53.501Z,86.63
2019-05-10T02:24:24.623Z,85.30
2019-05-10T02:26:54.586Z,86.25
2019-05-10T02:29:24.655Z,86.35
2019-05-10T02:31:54.639Z,85.31
2019-05-10T02:34:24.634Z,85.70
2019-05-10T02:36:54.696Z,85.95
2019-05-10T02:39:24.695Z,86.65
2019-05-10T02:41:54.747Z,85.37
2019-05-10T02:44:24.726Z,85.32
2019-05-10T02:46:54.820Z,85.88
2019-05-10T02:49:24.813Z,85.72
2019-05-10T02:51:54.901Z,85.38
2019-05-10T02:54:25.011Z,84.80
2019-05-10T02:56:56.263Z,85.45
2019-05-10T02:59:27.105Z,85.75
2019-05-10T03:01:57.681Z,86.02
2019-05-10T03:04:28.742Z,85.97
2019-05-10T03:07:06.944Z,85.99
2019-05-10T03:09:37.004Z,85.96
2019-05-10T03:12:19.019Z,85.63
2019-05-10T03:14:52.079Z,84.56
2019-05-10T03:17:22.222Z,85.17
2019-05-10T03:19:54.166Z,84.13
2019-05-10T03:22:25.923Z,85.37
2019-05-10T03:24:56.170Z,85.41
2019-05-10T03:27:26.172Z,85.46
2019-05-10T03:29:56.322Z,84.78
2019-05-10T03:32:26.313Z,85.65
2019-05-10T03:34:56.329Z,85.87
2019-05-10T03:37:27.061Z,85.57
2019-05-10T03:39:57.130Z,85.93
2019-05-10T03:42:27.162Z,85.56
2019-05-10T03:44:57.230Z,84.31
2019-05-10T03:47:27.230Z,85.37
2019-05-10T03:49:57.333Z,85.97
2019-05-10T03:52:27.319Z,85.78
2019-05-10T03:54:57.393Z,85.63
2019-05-10T03:57:27.378Z,85.92
2019-05-10T03:59:57.399Z,85.93
2019-05-10T04:02:27.473Z,85.52
2019-05-10T04:04:57.472Z,86.56
2019-05-10T04:07:27.547Z,85.58
2019-05-10T04:09:57.601Z,86.56
2019-05-10T04:12:27.599Z,85.99
2019-05-10T04:14:57.624Z,85.44
2019-05-10T04:17:27.674Z,85.56
2019-05-10T04:19:57.732Z,85.20
2019-05-10T04:22:27.815Z,83.20
2019-05-10T04:24:57.848Z,85.08
2019-05-10T04:27:32.348Z,85.69
2019-05-10T04:29:59.559Z,85.70
2019-05-10T04:32:29.554Z,85.33
2019-05-10T04:34:59.563Z,85.83
2019-05-10T04:37:29.590Z,85.53
2019-05-10T04:40:00.661Z,86.92
2019-05-10T04:42:30.756Z,87.14
2019-05-10T04:45:00.806Z,87.08
2019-05-10T04:47:30.845Z,87.68
2019-05-10T04:50:00.876Z,86.10
2019-05-10T04:52:32.052Z,85.81
2019-05-10T04:55:02.079Z,85.78
2019-05-10T04:57:47.965Z,85.73
2019-05-10T05:00:05.726Z,84.76
2019-05-10T05:02:35.734Z,85.78
2019-05-10T05:05:07.520Z,85.26
2019-05-10T05:07:37.553Z,86.43
2019-05-10T05:10:09.139Z,87.17
2019-05-10T05:12:39.182Z,86.89
2019-05-10T05:15:09.909Z,87.19
2019-05-10T05:17:39.925Z,86.75
2019-05-10T05:20:10.415Z,86.56
2019-05-10T05:22:40.403Z,86.51
2019-05-10T05:25:10.526Z,87.46
2019-05-10T05:27:40.620Z,86.96
2019-05-10T05:30:10.669Z,86.78
2019-05-10T05:32:44.614Z,85.87
2019-05-10T05:35:15.547Z,86.71
2019-05-10T05:37:45.442Z,85.78
2019-05-10T05:40:15.714Z,85.20
2019-05-10T05:42:45.721Z,86.68
2019-05-10T05:45:15.850Z,86.86
2019-05-10T05:47:45.865Z,85.48
2019-05-10T05:50:15.914Z,86.53
2019-05-10T05:52:45.929Z,86.79
2019-05-10T05:55:16.002Z,87.84
2019-05-10T05:57:48.398Z,88.16
2019-05-10T06:00:20.927Z,86.04
2019-05-10T06:02:50.939Z,85.43
2019-05-10T06:05:33.859Z,85.33
2019-05-10T06:07:54.255Z,86.58
2019-05-10T06:10:24.239Z,84.89
2019-05-10T06:12:54.229Z,85.60
2019-05-10T06:15:28.925Z,85.15
2019-05-10T06:17:57.579Z,84.86
2019-05-10T06:20:27.777Z,85.50
2019-05-10T06:23:06.581Z,86.74
2019-05-10T06:25:39.552Z,86.88
2019-05-10T06:28:01.186Z,85.83
2019-05-10T06:30:31.203Z,85.70
2019-05-10T06:33:11.859Z,85.09
2019-05-10T06:35:32.923Z,84.69
2019-05-10T06:38:02.945Z,84.84
2019-05-10T06:40:37.539Z,84.22
2019-05-10T06:43:07.056Z,84.30
2019-05-10T06:45:36.454Z,83.98
2019-05-10T06:48:06.441Z,86.36
2019-05-10T06:50:36.454Z,85.84
2019-05-10T06:53:10.736Z,85.35
2019-05-10T06:55:38.165Z,85.50
2019-05-10T06:58:08.152Z,85.18
2019-05-10T07:00:44.494Z,85.72
2019-05-10T07:03:09.851Z,84.76
2019-05-10T07:05:39.893Z,84.92
2019-05-10T07:08:19.721Z,84.02
2019-05-10T07:10:42.156Z,83.99
2019-05-10T07:13:12.365Z,85.25
2019-05-10T07:15:44.765Z,85.58
2019-05-10T07:18:16.783Z,84.05
2019-05-10T07:20:45.869Z,84.54
2019-05-10T07:23:15.864Z,84.67
2019-05-10T07:25:46.714Z,84.40
2019-05-10T07:28:17.807Z,84.87
2019-05-10T07:30:49.049Z,84.95
2019-05-10T07:33:19.065Z,84.56
2019-05-10T07:35:49.123Z,84.77
2019-05-10T07:38:23.454Z,84.24
2019-05-10T07:40:50.820Z,83.89
2019-05-10T07:43:26.633Z,85.45
2019-05-10T07:45:58.658Z,85.11
2019-05-10T07:48:24.325Z,83.19
2019-05-10T07:50:54.321Z,85.08
2019-05-10T07:53:25.230Z,83.29
2019-05-10T07:55:59.990Z,83.83
2019-05-10T07:58:27.049Z,83.15
2019-05-10T08:00:57.178Z,83.26
2019-05-10T08:03:29.644Z,83.83
2019-05-10T08:06:01.889Z,83.84
2019-05-10T08:08:30.585Z,83.48
2019-05-10T08:11:00.877Z,82.02
2019-05-10T08:13:30.899Z,82.72
2019-05-10T08:16:05.505Z,83.98
2019-05-10T08:18:32.642Z,84.08
2019-05-10T08:21:17.992Z,82.88
2019-05-10T08:23:34.321Z,83.55
2019-05-10T08:26:04.720Z,83.75
2019-05-10T08:28:37.923Z,83.02
2019-05-10T08:31:07.562Z,82.07
2019-05-10T08:33:37.629Z,82.97
2019-05-10T08:36:07.634Z,82.39
2019-05-10T08:38:39.829Z,81.51
2019-05-10T08:41:16.500Z,83.79
2019-05-10T08:43:43.005Z,82.40
2019-05-10T08:46:12.759Z,82.89
2019-05-10T08:48:50.256Z,82.46
2019-05-10T08:51:14.516Z,80.98
2019-05-10T08:53:47.096Z,82.57
2019-05-10T08:56:20.916Z,81.70
2019-05-10T08:58:48.013Z,83.84
2019-05-10T09:01:26.595Z,83.18
2019-05-10T09:03:55.066Z,81.77
2019-05-10T09:06:22.129Z,81.81
2019-05-10T09:09:01.396Z,81.87
2019-05-10T09:11:23.850Z,82.09
2019-05-10T09:13:57.484Z,81.70
2019-05-10T09:16:29.235Z,82.34
2019-05-10T09:18:57.444Z,82.62
2019-05-10T09:21:27.442Z,81.83
2019-05-10T09:24:01.517Z,82.27
2019-05-10T09:26:29.224Z,78.57
2019-05-10T09:29:01.476Z,81.23
2019-05-10T09:31:32.656Z,81.40
2019-05-10T09:34:03.941Z,83.53
2019-05-10T09:36:36.213Z,82.61
2019-05-10T09:39:09.210Z,82.38
2019-05-10T09:41:38.584Z,82.52
2019-05-10T09:44:08.644Z,81.97
2019-05-10T09:46:38.648Z,82.53
2019-05-10T09:49:15.566Z,81.59
2019-05-10T09:51:42.262Z,81.87
2019-05-10T09:54:12.556Z,80.28
2019-05-10T09:56:44.966Z,81.38
2019-05-10T09:59:14.342Z,82.40
2019-05-10T10:01:44.343Z,83.80
2019-05-10T10:04:14.411Z,82.89
2019-05-10T10:06:48.231Z,82.90
2019-05-10T10:09:17.178Z,82.44
2019-05-10T10:11:57.376Z,80.77
2019-05-10T10:14:19.149Z,81.19
2019-05-10T10:16:58.344Z,80.60
2019-05-10T10:19:24.363Z,80.90
2019-05-10T10:21:52.545Z,82.81
2019-05-10T10:24:22.532Z,81.45
2019-05-10T10:26:53.832Z,82.25
2019-05-10T10:29:28.725Z,81.56
2019-05-10T10:31:59.017Z,82.70
2019-05-10T10:34:32.701Z,82.23
2019-05-10T10:37:00.314Z,79.31
2019-05-10T10:39:30.365Z,80.00
2019-05-10T10:42:02.360Z,80.22
2019-05-10T10:44:32.112Z,81.57
2019-05-10T10:47:02.177Z,79.91
2019-05-10T10:49:32.211Z,80.02
2019-05-10T10:52:05.582Z,81.37
2019-05-10T10:54:37.471Z,81.78
2019-05-10T10:57:08.053Z,81.18
2019-05-10T10:59:37.649Z,81.49
2019-05-10T11:02:28.981Z,81.86
2019-05-10T11:04:40.545Z,81.60
2019-05-10T11:07:11.391Z,79.46
2019-05-10T11:09:41.361Z,78.78
2019-05-10T11:12:14.742Z,80.75
2019-05-10T11:14:45.323Z,80.97
2019-05-10T11:17:14.859Z,81.32
2019-05-10T11:19:44.864Z,81.94
2019-05-10T11:22:14.861Z,81.11
2019-05-10T11:24:44.902Z,80.53
2019-05-10T11:27:17.193Z,80.81
2019-05-10T11:29:46.723Z,80.00
2019-05-10T11:32:17.176Z,80.44
2019-05-10T11:34:48.424Z,80.90
2019-05-10T11:37:25.166Z,80.09
2019-05-10T11:39:50.561Z,80.05
2019-05-10T11:42:21.171Z,80.52
2019-05-10T11:44:54.513Z,80.67
2019-05-10T11:47:27.193Z,80.78
2019-05-10T11:49:55.919Z,80.37
2019-05-10T11:52:29.286Z,80.31
2019-05-10T11:54:57.736Z,79.47
2019-05-10T11:57:32.408Z,78.25
2019-05-10T12:00:00.540Z,78.12
2019-05-10T12:02:43.255Z,78.50
2019-05-10T12:05:10.868Z,78.72
2019-05-10T12:07:42.751Z,77.91
2019-05-10T12:10:16.996Z,78.80
2019-05-10T12:12:54.041Z,78.95
2019-05-10T12:15:13.534Z,78.44
2019-05-10T12:17:46.387Z,78.15
2019-05-10T12:20:16.853Z,77.94
2019-05-10T12:22:47.686Z,78.49
2019-05-10T12:25:37.756Z,78.09
2019-05-10T12:27:52.182Z,79.17
2019-05-10T12:30:21.614Z,79.85
2019-05-10T12:32:56.530Z,78.43
2019-05-10T12:35:26.422Z,80.61
2019-05-10T12:37:56.304Z,81.36
2019-05-10T12:40:26.313Z,80.48
2019-05-10T12:42:56.299Z,80.05
2019-05-10T12:45:26.378Z,79.68
2019-05-10T12:47:56.379Z,79.45
2019-05-10T12:50:26.589Z,78.79
2019-05-10T12:53:14.371Z,78.76
2019-05-10T12:55:28.330Z,78.16
2019-05-10T12:57:58.393Z,79.06
2019-05-10T13:00:28.378Z,77.71
2019-05-10T13:03:11.510Z,78.60
2019-05-10T13:19:14.032Z,78.08
2019-05-10T13:21:41.128Z,78.38
2019-05-10T13:24:11.206Z,78.35
2019-05-10T13:26:41.231Z,79.17
2019-05-10T13:29:11.268Z,79.76
2019-05-10T13:31:43.031Z,78.56
2019-05-10T13:34:13.114Z,78.38
2019-05-10T13:36:44.363Z,78.12
2019-05-10T13:39:19.188Z,77.85
2019-05-10T13:41:46.153Z,78.26
2019-05-10T13:44:16.190Z,79.65
2019-05-10T13:46:46.235Z,78.31
2019-05-10T13:49:16.296Z,77.51
2019-05-10T13:51:46.461Z,73.31
2019-05-10T13:54:16.489Z,77.47
2019-05-10T13:56:52.046Z,80.08
2019-05-10T13:59:19.949Z,80.60
2019-05-10T14:01:51.481Z,80.27
2019-05-10T14:04:23.262Z,79.93
2019-05-10T14:06:53.390Z,79.38
2019-05-10T14:09:23.516Z,80.17
2019-05-10T14:11:53.495Z,79.73
2019-05-10T14:14:26.610Z,79.77
2019-05-10T14:16:55.259Z,79.59
2019-05-10T14:19:25.934Z,79.50
2019-05-10T14:21:56.279Z,79.37
2019-05-10T14:24:26.259Z,78.57
2019-05-10T14:26:57.333Z,78.55
2019-05-10T14:29:34.680Z,79.03
2019-05-10T14:31:59.686Z,77.76
2019-05-10T14:34:29.746Z,79.28
2019-05-10T14:36:59.829Z,79.16
2019-05-10T14:39:29.824Z,80.71
2019-05-10T14:41:59.820Z,80.71
2019-05-10T14:44:29.831Z,79.87
2019-05-10T14:46:59.873Z,79.83
2019-05-10T14:49:29.868Z,81.03
2019-05-10T14:51:59.879Z,81.80
2019-05-10T14:54:43.158Z,80.90
2019-05-10T14:57:04.468Z,81.49
2019-05-10T14:59:34.486Z,80.93
2019-05-10T15:02:04.725Z,80.61
2019-05-10T15:04:50.293Z,81.02
2019-05-10T15:07:08.579Z,80.74
2019-05-10T15:09:38.165Z,81.57
2019-05-10T15:12:10.281Z,80.64
2019-05-10T15:14:39.905Z,80.92
2019-05-10T15:17:09.959Z,80.57
2019-05-10T15:19:39.958Z,79.93
2019-05-10T15:22:09.980Z,79.46
2019-05-10T15:24:39.985Z,80.99
2019-05-10T15:27:09.993Z,80.51
2019-05-10T15:29:40.036Z,79.75
2019-05-10T15:32:10.087Z,79.48
2019-05-10T15:34:40.064Z,79.73
2019-05-10T15:37:10.784Z,79.82
2019-05-10T15:39:40.899Z,79.98
2019-05-10T15:42:10.898Z,80.00
2019-05-10T15:44:40.907Z,79.70
2019-05-10T15:47:14.459Z,80.38
2019-05-10T15:49:42.772Z,79.46
2019-05-10T15:52:17.822Z,80.54
2019-05-10T15:54:47.110Z,80.58
2019-05-10T15:57:20.217Z,79.64
2019-05-10T15:59:50.847Z,79.46
2019-05-10T16:02:19.594Z,80.24
2019-05-10T16:04:49.620Z,80.54
2019-05-10T16:07:19.614Z,80.05
2019-05-10T16:09:54.091Z,79.40
2019-05-10T16:12:21.336Z,80.24
2019-05-10T16:14:51.345Z,79.52
2019-05-10T16:17:23.937Z,79.51
2019-05-10T16:19:59.802Z,78.95
2019-05-10T16:22:30.247Z,78.93
2019-05-10T16:25:00.528Z,79.10
2019-05-10T16:27:28.345Z,79.21
2019-05-10T16:29:58.346Z,79.02
2019-05-10T16:32:29.312Z,78.92
2019-05-10T16:35:05.967Z,79.14
2019-05-10T16:37:32.911Z,79.16
2019-05-10T16:40:03.161Z,79.12
2019-05-10T16:42:34.551Z,79.37
2019-05-10T16:45:05.705Z,79.51
2019-05-10T16:47:35.741Z,80.34
2019-05-10T16:50:09.046Z,79.62
2019-05-10T16:52:39.100Z,79.61
2019-05-10T16:55:10.031Z,81.18
2019-05-10T16:57:40.074Z,80.27
2019-05-10T17:00:11.031Z,79.29
2019-05-10T17:02:43.875Z,81.92
2019-05-10T17:05:15.176Z,80.78
2019-05-10T17:07:44.656Z,82.03
2019-05-10T17:10:14.778Z,81.40
2019-05-10T17:12:44.833Z,82.53
2019-05-10T17:15:15.045Z,82.72
2019-05-10T17:17:47.379Z,82.07
2019-05-10T17:20:17.713Z,82.45
2019-05-10T17:22:47.757Z,82.44
2019-05-10T17:25:17.908Z,82.65
2019-05-10T17:27:50.687Z,82.18
2019-05-10T17:30:22.261Z,81.93
2019-05-10T17:32:51.559Z,82.38
2019-05-10T17:35:21.619Z,82.44
2019-05-10T17:37:53.014Z,82.32
2019-05-10T17:40:23.142Z,81.98
2019-05-10T17:42:53.205Z,83.07
2019-05-10T17:45:23.167Z,83.13
2019-05-10T17:47:53.139Z,83.73
2019-05-10T17:50:23.148Z,82.87
2019-05-10T17:52:53.152Z,82.87
2019-05-10T17:55:25.427Z,82.66
2019-05-10T17:57:56.508Z,82.86
2019-05-10T18:00:26.770Z,82.59
2019-05-10T18:02:56.777Z,83.85
2019-05-10T18:05:26.795Z,83.96
2019-05-10T18:07:56.826Z,84.01
2019-05-10T18:10:27.949Z,83.39
2019-05-10T18:13:03.481Z,83.24
2019-05-10T18:15:32.982Z,82.79
2019-05-10T18:18:02.500Z,82.06
2019-05-10T18:20:41.046Z,82.34
2019-05-10T18:23:04.919Z,82.06
2019-05-10T18:25:35.006Z,82.79
2019-05-10T18:28:05.062Z,82.45
2019-05-10T18:30:35.226Z,82.37
2019-05-10T18:33:06.715Z,82.35
2019-05-10T18:35:37.128Z,81.26
2019-05-10T18:38:07.107Z,82.17
2019-05-10T18:40:37.202Z,81.63
2019-05-10T18:43:07.255Z,81.86
2019-05-10T18:45:38.282Z,81.00
2019-05-10T18:48:08.382Z,81.59
2019-05-10T18:50:39.754Z,82.68
2019-05-10T18:53:10.164Z,81.84
2019-05-10T18:55:40.147Z,82.95
2019-05-10T18:58:10.207Z,82.22
2019-05-10T19:00:40.423Z,81.18
2019-05-10T19:03:10.461Z,81.42
2019-05-10T19:05:40.614Z,81.96
2019-05-10T19:08:10.688Z,82.08
2019-05-10T19:10:40.735Z,82.22
2019-05-10T19:13:11.206Z,83.43
2019-05-10T19:15:46.298Z,82.17
2019-05-10T19:18:17.817Z,82.72
2019-05-10T19:20:48.843Z,82.41
2019-05-10T19:23:19.432Z,82.33
2019-05-10T19:25:51.901Z,82.54
2019-05-10T19:28:21.012Z,83.76
2019-05-10T19:30:52.735Z,83.47
2019-05-10T19:33:23.301Z,84.18
2019-05-10T19:35:53.285Z,84.13
2019-05-10T19:38:23.278Z,83.54
2019-05-10T19:40:53.314Z,84.56
2019-05-10T19:43:24.046Z,84.39
2019-05-10T19:45:57.632Z,84.88
2019-05-10T19:48:29.375Z,83.75
2019-05-10T19:51:02.950Z,85.22
2019-05-10T19:53:31.354Z,84.19
2019-05-10T19:56:04.068Z,84.64
2019-05-10T19:58:34.028Z,85.15
2019-05-10T20:01:08.837Z,85.56
2019-05-10T20:03:38.831Z,85.52
2019-05-10T20:06:08.811Z,86.97
2019-05-10T20:08:38.793Z,86.32
2019-05-10T20:11:08.829Z,84.77
2019-05-10T20:13:38.906Z,84.85
2019-05-10T20:16:08.978Z,84.92
2019-05-10T20:18:39.047Z,85.26
2019-05-10T20:21:09.026Z,85.18
2019-05-10T20:23:39.068Z,86.25
2019-05-10T20:28:52.526Z,84.89
2019-05-10T20:31:22.603Z,85.52
2019-05-10T20:33:52.585Z,87.41
2019-05-10T20:36:22.673Z,88.30
2019-05-10T20:38:52.704Z,88.35
2019-05-10T20:41:22.698Z,87.99
2019-05-10T20:43:52.726Z,87.96
2019-05-10T20:46:22.724Z,88.80
2019-05-10T20:48:52.768Z,89.59
2019-05-10T20:51:22.759Z,89.06
2019-05-10T20:53:52.796Z,86.72
2019-05-10T20:56:22.784Z,87.69
2019-05-10T20:58:52.817Z,88.09
2019-05-10T21:01:22.791Z,86.65
2019-05-10T21:03:52.812Z,87.02
2019-05-10T21:06:22.801Z,86.92
2019-05-10T21:08:52.786Z,87.35
2019-05-10T21:11:22.793Z,88.12
2019-05-10T21:13:52.846Z,87.85
2019-05-10T21:16:22.921Z,88.30
2019-05-10T21:18:52.918Z,89.06
2019-05-10T21:21:22.933Z,88.19
2019-05-10T21:23:52.912Z,88.87
2019-05-10T21:26:22.978Z,88.71
2019-05-10T21:28:53.021Z,88.80
2019-05-10T21:31:23.056Z,86.81
2019-05-10T21:34:08.251Z,86.78
2019-05-10T21:36:24.882Z,85.46
2019-05-10T21:38:54.829Z,86.47
2019-05-10T21:41:24.898Z,85.38
2019-05-10T21:43:54.882Z,86.27
2019-05-10T21:46:24.860Z,86.53
2019-05-10T21:48:54.890Z,86.29
2019-05-10T21:51:24.861Z,85.52
2019-05-10T21:53:54.903Z,86.45
2019-05-10T21:56:24.903Z,85.47
2019-05-10T21:58:54.877Z,85.33
2019-05-10T22:01:25.004Z,86.44
2019-05-10T22:03:55.157Z,87.63
2019-05-10T22:06:25.144Z,85.95
2019-05-10T22:08:55.125Z,87.17
2019-05-10T22:11:25.283Z,85.72
2019-05-10T22:13:55.364Z,86.30
2019-05-10T22:16:25.401Z,86.00
2019-05-10T22:19:02.896Z,85.81
2019-05-10T22:21:32.944Z,86.89
2019-05-10T22:24:03.008Z,85.29
2019-05-10T22:26:32.996Z,86.15
2019-05-10T22:29:03.054Z,85.88
2019-05-10T22:31:33.113Z,86.47
2019-05-10T22:34:03.164Z,86.39
2019-05-10T22:36:33.213Z,85.98
2019-05-10T22:39:07.443Z,85.20
2019-05-10T22:41:36.629Z,86.19
2019-05-10T22:44:06.685Z,86.30
2019-05-10T22:46:36.665Z,85.76
2019-05-10T22:49:06.727Z,85.88
2019-05-10T22:51:36.689Z,85.84
2019-05-10T22:54:06.698Z,86.53
2019-05-10T22:56:36.695Z,86.72
2019-05-10T22:59:06.736Z,85.75
2019-05-10T23:01:36.805Z,86.25
2019-05-10T23:04:06.810Z,84.96
2019-05-10T23:06:36.855Z,84.67
2019-05-10T23:09:23.607Z,84.85
2019-05-10T23:11:39.909Z,84.39
2019-05-10T23:14:09.940Z,84.68
2019-05-10T23:16:39.986Z,84.74
2019-05-10T23:19:10.012Z,84.37
2019-05-10T23:21:39.985Z,84.42
2019-05-10T23:24:11.614Z,84.98
2019-05-10T23:26:41.607Z,85.52
2019-05-10T23:29:11.597Z,85.27
2019-05-10T23:31:41.582Z,84.63
2019-05-10T23:34:11.563Z,84.67
2019-05-10T23:36:41.648Z,85.51
2019-05-10T23:39:11.700Z,84.97
2019-05-10T23:41:41.720Z,84.63
2019-05-10T23:44:11.769Z,83.51
2019-05-10T23:46:41.749Z,84.05
2019-05-10T23:49:11.779Z,82.75
2019-05-10T23:51:41.761Z,83.29
2019-05-10T23:54:11.842Z,83.60
2019-05-10T23:56:41.840Z,83.99
2019-05-10T23:59:11.841Z,83.94
